sensor_id;sensor_type;location;lat;lon;timestamp;P1;durP1;ratioP1;P2;durP2;ratioP2
79583;SDS011;69053;57.338;18.700;2023-07-16T00:14:40;7.38;;;2.05;;
79583;SDS011;69053;57.338;18.700;2023-07-16T00:21:30;3.95;;;1.50;;
79583;SDS011;69053;57.338;18.700;2023-07-16T00:24:34;2.38;;;1.55;;
79583;SDS011;69053;57.338;18.700;2023-07-16T01:47:13;5.60;;;1.98;;
79583;SDS011;69053;57.338;18.700;2023-07-16T01:53:58;4.28;;;2.30;;
79583;SDS011;69053;57.338;18.700;2023-07-16T02:07:49;5.82;;;2.30;;
79583;SDS011;69053;57.338;18.700;2023-07-16T02:11:18;5.22;;;2.85;;
79583;SDS011;69053;57.338;18.700;2023-07-16T02:14:25;3.03;;;1.90;;
79583;SDS011;69053;57.338;18.700;2023-07-16T02:17:31;4.13;;;2.60;;
79583;SDS011;69053;57.338;18.700;2023-07-16T02:21:05;6.22;;;2.30;;
79583;SDS011;69053;57.338;18.700;2023-07-16T02:37:53;3.45;;;1.95;;
79583;SDS011;69053;57.338;18.700;2023-07-16T02:44:06;7.15;;;2.65;;
79583;SDS011;69053;57.338;18.700;2023-07-16T02:47:11;6.80;;;2.38;;
79583;SDS011;69053;57.338;18.700;2023-07-16T02:50:13;3.17;;;2.47;;
79583;SDS011;69053;57.338;18.700;2023-07-16T02:53:25;5.93;;;2.40;;
79583;SDS011;69053;57.338;18.700;2023-07-16T02:56:25;4.82;;;2.20;;
79583;SDS011;69053;57.338;18.700;2023-07-16T02:59:28;6.15;;;2.50;;
79583;SDS011;69053;57.338;18.700;2023-07-16T03:02:29;5.35;;;2.20;;
79583;SDS011;69053;57.338;18.700;2023-07-16T03:05:29;4.88;;;2.20;;
79583;SDS011;69053;57.338;18.700;2023-07-16T03:08:30;8.70;;;2.90;;
79583;SDS011;69053;57.338;18.700;2023-07-16T03:11:31;6.22;;;2.65;;
79583;SDS011;69053;57.338;18.700;2023-07-16T03:14:32;5.28;;;2.10;;
79583;SDS011;69053;57.338;18.700;2023-07-16T03:17:32;7.35;;;2.50;;
79583;SDS011;69053;57.338;18.700;2023-07-16T03:20:33;5.28;;;2.42;;
79583;SDS011;69053;57.338;18.700;2023-07-16T03:23:34;6.88;;;2.78;;
79583;SDS011;69053;57.338;18.700;2023-07-16T03:26:35;4.43;;;2.22;;
79583;SDS011;69053;57.338;18.700;2023-07-16T03:29:35;6.55;;;2.38;;
79583;SDS011;69053;57.338;18.700;2023-07-16T03:32:36;7.72;;;2.22;;
79583;SDS011;69053;57.338;18.700;2023-07-16T03:35:36;5.30;;;2.20;;
79583;SDS011;69053;57.338;18.700;2023-07-16T03:38:37;5.28;;;2.40;;
79583;SDS011;69053;57.338;18.700;2023-07-16T03:41:38;8.45;;;2.45;;
79583;SDS011;69053;57.338;18.700;2023-07-16T03:44:39;5.97;;;2.42;;
79583;SDS011;69053;57.338;18.700;2023-07-16T03:47:43;6.70;;;2.63;;
79583;SDS011;69053;57.338;18.700;2023-07-16T03:50:43;6.32;;;2.47;;
79583;SDS011;69053;57.338;18.700;2023-07-16T03:53:44;4.28;;;2.05;;
79583;SDS011;69053;57.338;18.700;2023-07-16T03:56:45;8.85;;;2.60;;
79583;SDS011;69053;57.338;18.700;2023-07-16T03:59:45;5.47;;;2.38;;
79583;SDS011;69053;57.338;18.700;2023-07-16T04:02:46;4.05;;;2.20;;
79583;SDS011;69053;57.338;18.700;2023-07-16T04:05:47;5.28;;;2.75;;
79583;SDS011;69053;57.338;18.700;2023-07-16T04:08:47;4.97;;;2.30;;
79583;SDS011;69053;57.338;18.700;2023-07-16T04:11:48;6.75;;;2.97;;
79583;SDS011;69053;57.338;18.700;2023-07-16T04:14:49;6.70;;;2.15;;
79583;SDS011;69053;57.338;18.700;2023-07-16T04:17:51;7.05;;;2.67;;
79583;SDS011;69053;57.338;18.700;2023-07-16T04:20:52;6.18;;;2.20;;
79583;SDS011;69053;57.338;18.700;2023-07-16T04:23:53;4.95;;;2.47;;
79583;SDS011;69053;57.338;18.700;2023-07-16T04:26:53;4.93;;;2.22;;
79583;SDS011;69053;57.338;18.700;2023-07-16T04:29:55;3.88;;;2.05;;
79583;SDS011;69053;57.338;18.700;2023-07-16T04:32:56;6.25;;;2.30;;
79583;SDS011;69053;57.338;18.700;2023-07-16T04:35:58;6.57;;;2.42;;
79583;SDS011;69053;57.338;18.700;2023-07-16T04:39:00;4.53;;;2.30;;
79583;SDS011;69053;57.338;18.700;2023-07-16T04:42:02;5.28;;;2.25;;
79583;SDS011;69053;57.338;18.700;2023-07-16T04:45:04;4.55;;;2.28;;
79583;SDS011;69053;57.338;18.700;2023-07-16T04:48:09;4.88;;;2.45;;
79583;SDS011;69053;57.338;18.700;2023-07-16T04:51:11;4.20;;;2.15;;
79583;SDS011;69053;57.338;18.700;2023-07-16T04:54:11;3.97;;;2.60;;
79583;SDS011;69053;57.338;18.700;2023-07-16T04:57:12;5.32;;;2.60;;
79583;SDS011;69053;57.338;18.700;2023-07-16T05:00:13;6.07;;;2.30;;
79583;SDS011;69053;57.338;18.700;2023-07-16T05:03:17;5.05;;;2.35;;
79583;SDS011;69053;57.338;18.700;2023-07-16T05:06:18;3.60;;;2.13;;
79583;SDS011;69053;57.338;18.700;2023-07-16T05:09:19;4.60;;;2.25;;
79583;SDS011;69053;57.338;18.700;2023-07-16T05:12:20;4.57;;;2.65;;
79583;SDS011;69053;57.338;18.700;2023-07-16T05:15:21;8.23;;;2.78;;
79583;SDS011;69053;57.338;18.700;2023-07-16T05:18:22;5.63;;;2.72;;
79583;SDS011;69053;57.338;18.700;2023-07-16T05:21:22;3.28;;;2.15;;
79583;SDS011;69053;57.338;18.700;2023-07-16T05:24:23;5.93;;;2.95;;
79583;SDS011;69053;57.338;18.700;2023-07-16T05:27:24;4.38;;;2.08;;
79583;SDS011;69053;57.338;18.700;2023-07-16T05:30:24;4.93;;;2.65;;
79583;SDS011;69053;57.338;18.700;2023-07-16T05:33:25;3.70;;;2.53;;
79583;SDS011;69053;57.338;18.700;2023-07-16T05:36:25;4.38;;;2.20;;
79583;SDS011;69053;57.338;18.700;2023-07-16T05:39:26;5.85;;;2.42;;
79583;SDS011;69053;57.338;18.700;2023-07-16T05:42:27;3.78;;;2.40;;
79583;SDS011;69053;57.338;18.700;2023-07-16T05:45:29;6.32;;;2.60;;
79583;SDS011;69053;57.338;18.700;2023-07-16T05:48:29;4.85;;;2.47;;
79583;SDS011;69053;57.338;18.700;2023-07-16T05:51:30;5.55;;;2.75;;
79583;SDS011;69053;57.338;18.700;2023-07-16T05:54:30;4.72;;;2.40;;
79583;SDS011;69053;57.338;18.700;2023-07-16T05:57:31;4.88;;;2.55;;
79583;SDS011;69053;57.338;18.700;2023-07-16T06:00:32;3.92;;;2.20;;
79583;SDS011;69053;57.338;18.700;2023-07-16T06:03:32;4.20;;;2.33;;
79583;SDS011;69053;57.338;18.700;2023-07-16T06:06:33;6.30;;;2.72;;
79583;SDS011;69053;57.338;18.700;2023-07-16T06:09:39;5.03;;;2.67;;
79583;SDS011;69053;57.338;18.700;2023-07-16T06:12:39;5.68;;;3.00;;
79583;SDS011;69053;57.338;18.700;2023-07-16T06:15:40;4.72;;;2.85;;
79583;SDS011;69053;57.338;18.700;2023-07-16T06:18:41;7.82;;;3.33;;
79583;SDS011;69053;57.338;18.700;2023-07-16T06:21:41;5.45;;;2.60;;
79583;SDS011;69053;57.338;18.700;2023-07-16T06:24:50;6.43;;;2.92;;
79583;SDS011;69053;57.338;18.700;2023-07-16T06:27:59;4.82;;;2.53;;
79583;SDS011;69053;57.338;18.700;2023-07-16T06:31:00;5.10;;;2.70;;
79583;SDS011;69053;57.338;18.700;2023-07-16T06:34:01;9.20;;;4.65;;
79583;SDS011;69053;57.338;18.700;2023-07-16T06:37:02;6.55;;;2.97;;
79583;SDS011;69053;57.338;18.700;2023-07-16T06:40:04;5.95;;;3.45;;
79583;SDS011;69053;57.338;18.700;2023-07-16T06:43:05;6.55;;;3.33;;
79583;SDS011;69053;57.338;18.700;2023-07-16T06:46:06;6.43;;;3.83;;
79583;SDS011;69053;57.338;18.700;2023-07-16T06:49:09;6.25;;;3.50;;
79583;SDS011;69053;57.338;18.700;2023-07-16T06:52:31;7.43;;;3.38;;
79583;SDS011;69053;57.338;18.700;2023-07-16T06:58:36;7.50;;;3.45;;
79583;SDS011;69053;57.338;18.700;2023-07-16T07:01:44;5.47;;;3.17;;
79583;SDS011;69053;57.338;18.700;2023-07-16T07:04:52;6.05;;;2.72;;
79583;SDS011;69053;57.338;18.700;2023-07-16T07:07:56;4.60;;;3.47;;
79583;SDS011;69053;57.338;18.700;2023-07-16T07:11:06;6.85;;;3.95;;
79583;SDS011;69053;57.338;18.700;2023-07-16T07:14:12;10.05;;;3.45;;
79583;SDS011;69053;57.338;18.700;2023-07-16T07:17:23;6.63;;;3.38;;
79583;SDS011;69053;57.338;18.700;2023-07-16T07:20:29;9.23;;;3.67;;
79583;SDS011;69053;57.338;18.700;2023-07-16T07:23:30;8.77;;;3.78;;
79583;SDS011;69053;57.338;18.700;2023-07-16T07:26:30;5.90;;;3.75;;
79583;SDS011;69053;57.338;18.700;2023-07-16T07:29:34;9.43;;;3.50;;
79583;SDS011;69053;57.338;18.700;2023-07-16T07:32:55;5.13;;;3.50;;
79583;SDS011;69053;57.338;18.700;2023-07-16T07:36:02;7.28;;;3.70;;
79583;SDS011;69053;57.338;18.700;2023-07-16T07:39:05;8.38;;;4.47;;
79583;SDS011;69053;57.338;18.700;2023-07-16T07:42:07;9.35;;;4.07;;
79583;SDS011;69053;57.338;18.700;2023-07-16T07:45:10;4.47;;;2.95;;
79583;SDS011;69053;57.338;18.700;2023-07-16T07:48:10;6.53;;;4.25;;
79583;SDS011;69053;57.338;18.700;2023-07-16T07:51:11;7.20;;;3.63;;
79583;SDS011;69053;57.338;18.700;2023-07-16T08:07:02;8.52;;;4.22;;
79583;SDS011;69053;57.338;18.700;2023-07-16T08:10:07;5.72;;;3.90;;
79583;SDS011;69053;57.338;18.700;2023-07-16T08:13:20;6.20;;;4.30;;
79583;SDS011;69053;57.338;18.700;2023-07-16T08:16:22;7.07;;;4.35;;
79583;SDS011;69053;57.338;18.700;2023-07-16T08:19:27;7.00;;;4.38;;
79583;SDS011;69053;57.338;18.700;2023-07-16T08:22:46;7.82;;;3.72;;
79583;SDS011;69053;57.338;18.700;2023-07-16T08:26:16;6.50;;;3.97;;
79583;SDS011;69053;57.338;18.700;2023-07-16T08:32:30;7.22;;;4.50;;
79583;SDS011;69053;57.338;18.700;2023-07-16T08:35:39;8.02;;;4.10;;
79583;SDS011;69053;57.338;18.700;2023-07-16T08:38:44;4.50;;;3.88;;
79583;SDS011;69053;57.338;18.700;2023-07-16T09:11:46;5.95;;;4.10;;
79583;SDS011;69053;57.338;18.700;2023-07-16T10:31:49;11.85;;;3.45;;
79583;SDS011;69053;57.338;18.700;2023-07-16T10:35:03;6.38;;;3.70;;
79583;SDS011;69053;57.338;18.700;2023-07-16T10:44:54;4.93;;;2.60;;
79583;SDS011;69053;57.338;18.700;2023-07-16T11:07:42;3.70;;;2.65;;
79583;SDS011;69053;57.338;18.700;2023-07-16T11:11:01;3.80;;;2.42;;
79583;SDS011;69053;57.338;18.700;2023-07-16T11:14:34;5.03;;;3.03;;
79583;SDS011;69053;57.338;18.700;2023-07-16T11:17:50;7.57;;;3.20;;
79583;SDS011;69053;57.338;18.700;2023-07-16T11:20:55;3.65;;;2.85;;
79583;SDS011;69053;57.338;18.700;2023-07-16T11:24:06;4.07;;;2.75;;
79583;SDS011;69053;57.338;18.700;2023-07-16T11:27:15;5.53;;;2.63;;
79583;SDS011;69053;57.338;18.700;2023-07-16T11:30:21;4.53;;;2.60;;
79583;SDS011;69053;57.338;18.700;2023-07-16T11:33:24;3.72;;;2.88;;
79583;SDS011;69053;57.338;18.700;2023-07-16T11:36:35;3.53;;;2.45;;
79583;SDS011;69053;57.338;18.700;2023-07-16T11:39:37;5.18;;;3.00;;
79583;SDS011;69053;57.338;18.700;2023-07-16T11:42:40;4.95;;;2.80;;
79583;SDS011;69053;57.338;18.700;2023-07-16T11:46:05;4.78;;;2.50;;
79583;SDS011;69053;57.338;18.700;2023-07-16T11:53:14;3.95;;;2.55;;
79583;SDS011;69053;57.338;18.700;2023-07-16T11:56:45;3.90;;;2.08;;
79583;SDS011;69053;57.338;18.700;2023-07-16T11:59:50;4.68;;;2.75;;
79583;SDS011;69053;57.338;18.700;2023-07-16T12:02:56;3.17;;;2.22;;
79583;SDS011;69053;57.338;18.700;2023-07-16T12:05:57;2.92;;;2.40;;
79583;SDS011;69053;57.338;18.700;2023-07-16T12:09:07;2.92;;;1.77;;
79583;SDS011;69053;57.338;18.700;2023-07-16T12:19:08;2.38;;;1.70;;
79583;SDS011;69053;57.338;18.700;2023-07-16T12:22:10;4.97;;;1.55;;
79583;SDS011;69053;57.338;18.700;2023-07-16T12:25:12;2.13;;;1.45;;
79583;SDS011;69053;57.338;18.700;2023-07-16T12:28:13;2.55;;;1.50;;
79583;SDS011;69053;57.338;18.700;2023-07-16T12:31:16;4.75;;;1.70;;
79583;SDS011;69053;57.338;18.700;2023-07-16T12:41:25;2.38;;;1.55;;
79583;SDS011;69053;57.338;18.700;2023-07-16T13:12:03;1.98;;;1.13;;
79583;SDS011;69053;57.338;18.700;2023-07-16T13:15:10;2.60;;;1.25;;
79583;SDS011;69053;57.338;18.700;2023-07-16T13:18:13;1.90;;;1.20;;
79583;SDS011;69053;57.338;18.700;2023-07-16T13:21:17;1.90;;;1.05;;
79583;SDS011;69053;57.338;18.700;2023-07-16T13:24:17;3.85;;;1.17;;
79583;SDS011;69053;57.338;18.700;2023-07-16T13:27:22;1.70;;;1.17;;
79583;SDS011;69053;57.338;18.700;2023-07-16T13:30:29;2.15;;;1.52;;
79583;SDS011;69053;57.338;18.700;2023-07-16T13:33:40;2.20;;;1.33;;
79583;SDS011;69053;57.338;18.700;2023-07-16T13:39:57;1.88;;;1.10;;
79583;SDS011;69053;57.338;18.700;2023-07-16T13:43:02;2.15;;;1.33;;
79583;SDS011;69053;57.338;18.700;2023-07-16T13:46:09;1.40;;;0.90;;
79583;SDS011;69053;57.338;18.700;2023-07-16T13:49:38;1.73;;;0.98;;
79583;SDS011;69053;57.338;18.700;2023-07-16T13:52:47;1.95;;;1.10;;
79583;SDS011;69053;57.338;18.700;2023-07-16T13:55:51;1.52;;;1.17;;
79583;SDS011;69053;57.338;18.700;2023-07-16T13:59:05;2.28;;;1.10;;
79583;SDS011;69053;57.338;18.700;2023-07-16T14:08:54;3.75;;;1.67;;
79583;SDS011;69053;57.338;18.700;2023-07-16T14:11:57;2.78;;;1.70;;
79583;SDS011;69053;57.338;18.700;2023-07-16T14:15:01;2.65;;;1.60;;
79583;SDS011;69053;57.338;18.700;2023-07-16T14:18:09;2.13;;;1.65;;
79583;SDS011;69053;57.338;18.700;2023-07-16T14:24:58;2.25;;;1.27;;
79583;SDS011;69053;57.338;18.700;2023-07-16T14:27:58;3.10;;;1.48;;
79583;SDS011;69053;57.338;18.700;2023-07-16T14:30:59;3.67;;;1.75;;
79583;SDS011;69053;57.338;18.700;2023-07-16T14:34:01;2.30;;;1.65;;
79583;SDS011;69053;57.338;18.700;2023-07-16T14:37:36;2.78;;;2.00;;
79583;SDS011;69053;57.338;18.700;2023-07-16T14:54:06;2.28;;;1.10;;
79583;SDS011;69053;57.338;18.700;2023-07-16T15:20:57;3.15;;;1.40;;
79583;SDS011;69053;57.338;18.700;2023-07-16T15:30:27;2.42;;;1.17;;
79583;SDS011;69053;57.338;18.700;2023-07-16T15:33:40;3.10;;;1.13;;
79583;SDS011;69053;57.338;18.700;2023-07-16T15:40:11;1.60;;;0.80;;
79583;SDS011;69053;57.338;18.700;2023-07-16T15:46:47;1.75;;;0.70;;
79583;SDS011;69053;57.338;18.700;2023-07-16T15:57:20;2.10;;;1.02;;
79583;SDS011;69053;57.338;18.700;2023-07-16T16:01:02;3.40;;;1.02;;
79583;SDS011;69053;57.338;18.700;2023-07-16T16:28:07;2.65;;;1.23;;
79583;SDS011;69053;57.338;18.700;2023-07-16T16:48:30;5.10;;;2.13;;
79583;SDS011;69053;57.338;18.700;2023-07-16T16:54:55;2.55;;;1.38;;
79583;SDS011;69053;57.338;18.700;2023-07-16T17:01:10;2.78;;;1.40;;
79583;SDS011;69053;57.338;18.700;2023-07-16T17:04:21;4.03;;;1.27;;
79583;SDS011;69053;57.338;18.700;2023-07-16T17:07:42;3.47;;;1.35;;
79583;SDS011;69053;57.338;18.700;2023-07-16T17:17:06;2.25;;;1.08;;
79583;SDS011;69053;57.338;18.700;2023-07-16T17:23:21;3.88;;;1.40;;
79583;SDS011;69053;57.338;18.700;2023-07-16T17:26:31;5.57;;;1.48;;
79583;SDS011;69053;57.338;18.700;2023-07-16T17:32:41;2.85;;;1.30;;
79583;SDS011;69053;57.338;18.700;2023-07-16T17:35:46;6.38;;;2.10;;
79583;SDS011;69053;57.338;18.700;2023-07-16T17:38:55;3.42;;;1.50;;
79583;SDS011;69053;57.338;18.700;2023-07-16T17:45:26;3.47;;;1.40;;
79583;SDS011;69053;57.338;18.700;2023-07-16T17:55:04;4.15;;;1.50;;
79583;SDS011;69053;57.338;18.700;2023-07-16T18:25:44;4.65;;;1.30;;
79583;SDS011;69053;57.338;18.700;2023-07-16T18:53:05;4.70;;;1.52;;
79583;SDS011;69053;57.338;18.700;2023-07-16T18:56:23;6.47;;;1.58;;
79583;SDS011;69053;57.338;18.700;2023-07-16T18:59:36;4.85;;;1.60;;
79583;SDS011;69053;57.338;18.700;2023-07-16T19:02:48;2.92;;;1.45;;
79583;SDS011;69053;57.338;18.700;2023-07-16T20:59:47;3.72;;;1.40;;
79583;SDS011;69053;57.338;18.700;2023-07-16T21:09:52;4.93;;;1.75;;
79583;SDS011;69053;57.338;18.700;2023-07-16T21:13:21;3.30;;;1.77;;
79583;SDS011;69053;57.338;18.700;2023-07-16T21:16:41;4.32;;;1.98;;
79583;SDS011;69053;57.338;18.700;2023-07-16T21:20:02;3.15;;;1.33;;
79583;SDS011;69053;57.338;18.700;2023-07-16T21:26:44;5.30;;;1.83;;
79583;SDS011;69053;57.338;18.700;2023-07-16T22:08:06;5.05;;;1.77;;
79583;SDS011;69053;57.338;18.700;2023-07-16T22:11:33;4.45;;;1.90;;
79583;SDS011;69053;57.338;18.700;2023-07-16T22:15:01;5.38;;;2.00;;
79583;SDS011;69053;57.338;18.700;2023-07-16T22:35:57;4.75;;;2.03;;
79583;SDS011;69053;57.338;18.700;2023-07-16T22:42:54;6.82;;;2.40;;
79583;SDS011;69053;57.338;18.700;2023-07-16T22:53:24;5.63;;;2.05;;
79583;SDS011;69053;57.338;18.700;2023-07-16T23:02:47;6.13;;;2.13;;
79583;SDS011;69053;57.338;18.700;2023-07-16T23:09:11;4.80;;;2.45;;
79583;SDS011;69053;57.338;18.700;2023-07-16T23:15:19;6.07;;;2.05;;
79583;SDS011;69053;57.338;18.700;2023-07-16T23:18:22;5.20;;;1.83;;
79583;SDS011;69053;57.338;18.700;2023-07-16T23:21:24;4.55;;;2.22;;
79583;SDS011;69053;57.338;18.700;2023-07-16T23:24:26;7.45;;;1.95;;
79583;SDS011;69053;57.338;18.700;2023-07-16T23:27:26;4.72;;;2.13;;
79583;SDS011;69053;57.338;18.700;2023-07-16T23:30:27;6.40;;;2.38;;
79583;SDS011;69053;57.338;18.700;2023-07-16T23:33:31;4.75;;;1.95;;
79583;SDS011;69053;57.338;18.700;2023-07-16T23:36:32;3.05;;;2.08;;
79583;SDS011;69053;57.338;18.700;2023-07-16T23:39:32;4.93;;;1.73;;
79583;SDS011;69053;57.338;18.700;2023-07-16T23:42:33;4.45;;;2.10;;
79583;SDS011;69053;57.338;18.700;2023-07-16T23:45:34;4.45;;;1.70;;
79583;SDS011;69053;57.338;18.700;2023-07-16T23:48:34;4.35;;;1.52;;
79583;SDS011;69053;57.338;18.700;2023-07-16T23:51:35;7.00;;;1.83;;
79583;SDS011;69053;57.338;18.700;2023-07-16T23:54:35;5.57;;;1.80;;
79583;SDS011;69053;57.338;18.700;2023-07-16T23:57:36;4.47;;;1.70;;
